createdAt,value
2018-12-06T00:01:49.141Z,3.70
2018-12-06T00:04:16.378Z,3.80
2018-12-06T00:06:43.600Z,3.80
2018-12-06T00:09:10.829Z,3.80
2018-12-06T00:11:38.058Z,3.80
2018-12-06T00:14:05.567Z,3.80
2018-12-06T00:16:32.895Z,3.80
2018-12-06T00:19:09.513Z,3.90
2018-12-06T00:21:36.845Z,4.00
2018-12-06T00:24:04.325Z,4.10
2018-12-06T00:26:31.573Z,4.20
2018-12-06T00:28:58.819Z,4.40
2018-12-06T00:31:26.046Z,4.50
2018-12-06T00:33:53.385Z,4.40
2018-12-06T00:36:20.708Z,4.50
2018-12-06T00:38:47.987Z,4.60
2018-12-06T00:41:15.319Z,4.70
2018-12-06T00:43:42.707Z,4.70
2018-12-06T00:46:09.933Z,4.70
2018-12-06T00:48:37.146Z,4.70
2018-12-06T00:51:04.361Z,4.60
2018-12-06T00:53:31.649Z,4.50
2018-12-06T00:55:58.948Z,4.30
2018-12-06T00:58:26.160Z,4.20
2018-12-06T01:00:53.529Z,4.30
2018-12-06T01:03:20.731Z,4.30
2018-12-06T01:05:48.029Z,4.40
2018-12-06T01:08:15.274Z,4.50
2018-12-06T01:10:42.472Z,4.60
2018-12-06T01:13:09.694Z,4.60
2018-12-06T01:15:37.208Z,4.70
2018-12-06T01:18:04.694Z,4.80
2018-12-06T01:20:31.903Z,4.90
2018-12-06T01:22:59.189Z,4.90
2018-12-06T01:25:26.385Z,5.00
2018-12-06T01:27:53.588Z,5.00
2018-12-06T01:30:20.792Z,5.00
2018-12-06T01:32:47.993Z,4.90
2018-12-06T01:35:15.236Z,5.00
2018-12-06T01:37:42.441Z,5.00
2018-12-06T01:40:09.707Z,5.10
2018-12-06T01:42:36.893Z,5.10
2018-12-06T01:45:04.949Z,5.00
2018-12-06T01:47:32.143Z,4.90
2018-12-06T01:49:59.488Z,4.80
2018-12-06T01:52:26.681Z,4.70
2018-12-06T01:54:53.874Z,4.60
2018-12-06T01:57:21.101Z,4.60
2018-12-06T01:59:48.305Z,4.60
2018-12-06T02:02:15.544Z,4.50
2018-12-06T02:04:42.743Z,4.30
2018-12-06T02:07:10.036Z,4.30
2018-12-06T02:09:37.228Z,4.30
2018-12-06T02:12:04.632Z,4.30
2018-12-06T02:14:31.985Z,4.30
2018-12-06T02:16:59.180Z,4.20
2018-12-06T02:19:26.790Z,4.20
2018-12-06T02:21:53.993Z,4.20
2018-12-06T02:24:21.197Z,4.20
2018-12-06T02:26:48.424Z,4.20
2018-12-06T02:29:15.693Z,4.20
2018-12-06T02:31:43.078Z,4.20
2018-12-06T02:34:10.280Z,4.20
2018-12-06T02:36:37.645Z,4.30
2018-12-06T02:39:06.721Z,4.30
2018-12-06T02:41:33.944Z,4.50
2018-12-06T02:44:01.257Z,4.60
2018-12-06T02:46:28.572Z,4.70
2018-12-06T02:48:55.772Z,4.70
2018-12-06T02:51:23.112Z,4.70
2018-12-06T02:53:50.401Z,4.60
2018-12-06T02:56:17.617Z,4.60
2018-12-06T02:58:44.822Z,4.60
2018-12-06T03:01:12.029Z,4.70
2018-12-06T03:03:39.220Z,4.60
2018-12-06T03:06:06.433Z,4.60
2018-12-06T03:08:33.626Z,4.60
2018-12-06T03:11:00.957Z,4.60
2018-12-06T03:13:28.148Z,4.70
2018-12-06T03:15:55.357Z,4.80
2018-12-06T03:18:22.669Z,4.80
2018-12-06T03:20:49.865Z,4.90
2018-12-06T03:23:17.052Z,5.00
2018-12-06T03:25:44.378Z,5.00
2018-12-06T03:28:11.572Z,4.90
2018-12-06T03:30:38.869Z,4.70
2018-12-06T03:33:06.062Z,4.70
2018-12-06T03:35:33.384Z,4.80
2018-12-06T03:38:00.573Z,4.70
2018-12-06T03:40:27.768Z,4.70
2018-12-06T03:42:54.962Z,4.60
2018-12-06T03:45:22.139Z,4.60
2018-12-06T03:47:49.389Z,4.70
2018-12-06T03:50:16.613Z,4.80
2018-12-06T03:52:43.838Z,4.90
2018-12-06T03:55:11.172Z,5.00
2018-12-06T03:57:38.394Z,5.00
2018-12-06T04:00:05.954Z,5.00
2018-12-06T04:02:33.172Z,5.00
2018-12-06T04:05:00.391Z,5.00
2018-12-06T04:07:27.609Z,5.00
2018-12-06T04:09:54.816Z,5.00
2018-12-06T04:12:22.045Z,5.00
2018-12-06T04:14:49.259Z,5.00
2018-12-06T04:17:16.488Z,4.90
2018-12-06T04:19:43.731Z,4.80
2018-12-06T04:22:10.974Z,4.80
2018-12-06T04:24:38.199Z,4.80
2018-12-06T04:27:05.789Z,4.90
2018-12-06T04:29:33.091Z,5.00
2018-12-06T04:32:00.308Z,5.00
2018-12-06T04:34:27.533Z,5.10
2018-12-06T04:36:54.751Z,5.00
2018-12-06T04:39:21.979Z,5.00
2018-12-06T04:41:49.197Z,5.00
2018-12-06T04:44:16.436Z,5.10
2018-12-06T04:46:43.670Z,5.10
2018-12-06T04:49:10.879Z,5.20
2018-12-06T04:51:38.069Z,5.20
2018-12-06T04:54:05.272Z,5.10
2018-12-06T04:56:32.452Z,5.10
2018-12-06T04:58:59.660Z,5.20
2018-12-06T05:01:26.861Z,5.20
2018-12-06T05:03:54.068Z,5.20
2018-12-06T05:06:21.275Z,5.20
2018-12-06T05:08:48.489Z,5.20
2018-12-06T05:11:15.688Z,5.20
2018-12-06T05:13:43.134Z,5.20
2018-12-06T05:16:10.609Z,5.20
2018-12-06T05:18:37.808Z,5.20
2018-12-06T05:21:05.000Z,5.30
2018-12-06T05:23:32.201Z,5.20
2018-12-06T05:25:59.401Z,5.20
2018-12-06T05:28:26.596Z,5.30
2018-12-06T05:30:53.790Z,5.30
2018-12-06T05:33:21.013Z,5.30
2018-12-06T05:35:48.205Z,5.30
2018-12-06T05:38:15.461Z,5.10
2018-12-06T05:40:42.656Z,5.10
2018-12-06T05:43:09.844Z,5.10
2018-12-06T05:45:37.061Z,5.10
2018-12-06T05:48:04.289Z,5.00
2018-12-06T05:50:31.525Z,5.00
2018-12-06T05:52:58.735Z,5.10
2018-12-06T05:55:25.969Z,5.10
2018-12-06T05:57:53.202Z,5.10
2018-12-06T06:00:20.560Z,5.10
2018-12-06T06:02:47.785Z,5.10
2018-12-06T06:05:15.023Z,5.10
2018-12-06T06:07:42.249Z,5.10
2018-12-06T06:10:09.609Z,5.10
2018-12-06T06:12:36.829Z,5.00
2018-12-06T06:15:04.341Z,5.00
2018-12-06T06:17:31.557Z,5.00
2018-12-06T06:19:58.797Z,5.00
2018-12-06T06:22:26.020Z,5.00
2018-12-06T06:24:53.249Z,5.00
2018-12-06T06:27:20.463Z,5.10
2018-12-06T06:29:47.680Z,5.10
2018-12-06T06:32:14.916Z,5.10
2018-12-06T06:34:42.149Z,5.10
2018-12-06T06:37:09.382Z,5.10
2018-12-06T06:39:36.597Z,5.10
2018-12-06T06:42:04.057Z,5.10
2018-12-06T06:44:31.285Z,5.10
2018-12-06T06:46:58.524Z,5.10
2018-12-06T06:49:25.829Z,5.20
2018-12-06T06:51:53.265Z,5.20
2018-12-06T06:54:20.461Z,5.20
2018-12-06T06:56:47.661Z,5.20
2018-12-06T06:59:14.853Z,5.20
2018-12-06T07:01:42.052Z,5.20
2018-12-06T07:04:09.244Z,5.20
2018-12-06T07:06:36.464Z,5.20
2018-12-06T07:09:06.203Z,5.30
2018-12-06T07:11:33.691Z,5.30
2018-12-06T07:14:00.882Z,5.20
2018-12-06T07:16:28.128Z,5.20
2018-12-06T07:18:55.781Z,5.20
2018-12-06T07:21:22.989Z,5.30
2018-12-06T07:23:50.183Z,5.20
2018-12-06T07:26:17.364Z,5.20
2018-12-06T07:28:44.684Z,5.20
2018-12-06T07:31:11.879Z,5.20
2018-12-06T07:33:39.075Z,5.20
2018-12-06T07:36:06.265Z,5.20
2018-12-06T07:38:33.580Z,5.30
2018-12-06T07:41:00.767Z,5.30
2018-12-06T07:43:28.089Z,5.30
2018-12-06T07:46:00.895Z,5.30
2018-12-06T07:48:28.111Z,5.30
2018-12-06T07:50:55.308Z,5.30
2018-12-06T07:53:22.503Z,5.30
2018-12-06T07:55:49.697Z,5.30
2018-12-06T07:58:16.891Z,5.30
2018-12-06T08:00:44.089Z,5.40
2018-12-06T08:03:11.293Z,5.20
2018-12-06T08:05:38.487Z,5.20
2018-12-06T08:08:05.941Z,5.30
2018-12-06T08:10:33.169Z,5.30
2018-12-06T08:13:00.370Z,5.20
2018-12-06T08:15:27.668Z,5.20
2018-12-06T08:17:54.875Z,5.20
2018-12-06T08:20:22.069Z,5.20
2018-12-06T08:22:49.480Z,5.20
2018-12-06T08:25:16.666Z,5.20
2018-12-06T08:27:44.012Z,5.30
2018-12-06T08:30:11.337Z,5.20
2018-12-06T08:32:38.649Z,5.30
2018-12-06T08:35:06.107Z,5.30
2018-12-06T08:37:33.297Z,5.30
2018-12-06T08:40:00.493Z,5.30
2018-12-06T08:42:27.668Z,5.30
2018-12-06T08:44:54.861Z,5.40
2018-12-06T08:47:22.049Z,5.40
2018-12-06T08:49:49.300Z,5.40
2018-12-06T08:52:16.511Z,5.40
2018-12-06T08:54:43.736Z,5.40
2018-12-06T08:57:10.956Z,5.40
2018-12-06T08:59:38.187Z,5.50
2018-12-06T09:02:05.560Z,5.50
2018-12-06T09:04:32.784Z,5.50
2018-12-06T09:07:00.128Z,5.50
2018-12-06T09:09:27.369Z,5.50
2018-12-06T09:11:54.709Z,5.60
2018-12-06T09:14:22.057Z,5.60
2018-12-06T09:16:49.285Z,5.60
2018-12-06T09:19:16.513Z,5.60
2018-12-06T09:21:43.738Z,5.60
2018-12-06T09:24:10.968Z,5.60
2018-12-06T09:26:38.201Z,5.60
2018-12-06T09:29:05.573Z,5.70
2018-12-06T09:31:32.821Z,5.70
2018-12-06T09:34:02.917Z,5.70
2018-12-06T09:36:30.329Z,5.70
2018-12-06T09:38:57.613Z,5.80
2018-12-06T09:41:25.068Z,5.80
2018-12-06T09:43:52.469Z,5.80
2018-12-06T09:46:19.873Z,5.80
2018-12-06T09:48:47.131Z,5.90
2018-12-06T09:51:14.372Z,6.00
2018-12-06T09:53:41.712Z,6.00
2018-12-06T09:56:09.089Z,6.20
2018-12-06T09:58:36.425Z,6.20
2018-12-06T10:01:03.661Z,6.30
2018-12-06T10:03:30.881Z,6.40
2018-12-06T10:05:58.110Z,6.50
2018-12-06T10:08:25.323Z,6.60
2018-12-06T10:10:52.677Z,6.60
2018-12-06T10:13:19.919Z,6.40
2018-12-06T10:15:47.264Z,6.40
2018-12-06T10:18:14.477Z,6.40
2018-12-06T10:20:41.837Z,6.50
2018-12-06T10:23:09.055Z,6.40
2018-12-06T10:25:36.302Z,6.50
2018-12-06T10:28:03.635Z,6.60
2018-12-06T10:30:30.973Z,6.80
2018-12-06T10:32:58.208Z,6.90
2018-12-06T10:35:25.457Z,7.00
2018-12-06T10:37:52.685Z,7.10
2018-12-06T10:40:19.907Z,7.20
2018-12-06T10:42:47.137Z,7.30
2018-12-06T10:45:14.379Z,7.40
2018-12-06T10:47:41.607Z,7.50
2018-12-06T10:50:08.966Z,7.60
2018-12-06T10:52:36.201Z,7.60
2018-12-06T10:55:03.698Z,7.70
2018-12-06T10:57:30.946Z,7.60
2018-12-06T10:59:58.185Z,7.70
2018-12-06T11:02:27.710Z,7.80
2018-12-06T11:04:55.053Z,8.00
2018-12-06T11:07:22.328Z,8.10
2018-12-06T11:09:49.548Z,8.20
2018-12-06T11:12:16.789Z,8.30
2018-12-06T11:14:44.096Z,8.30
2018-12-06T11:17:11.338Z,8.30
2018-12-06T11:19:38.569Z,8.30
2018-12-06T11:22:05.812Z,8.30
2018-12-06T11:24:33.184Z,8.30
2018-12-06T11:27:00.600Z,8.40
2018-12-06T11:29:27.859Z,8.40
2018-12-06T11:31:55.093Z,8.30
2018-12-06T11:34:22.437Z,8.30
2018-12-06T11:36:49.752Z,8.30
2018-12-06T11:39:17.092Z,8.20
2018-12-06T11:41:44.353Z,8.20
2018-12-06T11:44:11.592Z,8.30
2018-12-06T11:46:38.956Z,8.30
2018-12-06T11:49:06.201Z,8.40
2018-12-06T11:51:33.444Z,8.40
2018-12-06T11:54:00.797Z,8.40
2018-12-06T11:56:28.027Z,8.50
2018-12-06T11:58:55.279Z,8.50
2018-12-06T12:01:22.514Z,8.50
2018-12-06T12:03:49.807Z,8.60
2018-12-06T12:06:17.080Z,8.60
2018-12-06T12:08:44.404Z,8.60
2018-12-06T12:11:11.630Z,8.70
2018-12-06T12:13:38.869Z,8.80
2018-12-06T12:16:06.101Z,8.80
2018-12-06T12:18:33.345Z,8.90
2018-12-06T12:21:00.704Z,9.00
2018-12-06T12:23:28.055Z,9.00
2018-12-06T12:25:55.324Z,9.10
2018-12-06T12:28:22.559Z,9.10
2018-12-06T12:30:49.795Z,9.10
2018-12-06T12:33:17.033Z,9.20
2018-12-06T12:35:44.368Z,9.20
2018-12-06T12:38:11.657Z,9.20
2018-12-06T12:40:38.881Z,9.10
2018-12-06T12:43:06.189Z,9.20
2018-12-06T12:45:33.649Z,9.20
2018-12-06T12:48:00.983Z,9.20
2018-12-06T12:50:28.259Z,9.20
2018-12-06T12:52:55.475Z,9.30
2018-12-06T12:55:22.734Z,9.30
2018-12-06T12:57:50.128Z,9.30
2018-12-06T13:00:17.404Z,9.30
2018-12-06T13:02:44.747Z,9.30
2018-12-06T13:05:12.217Z,9.30
2018-12-06T13:07:39.443Z,9.30
2018-12-06T13:10:06.904Z,9.30
2018-12-06T13:12:34.273Z,9.30
2018-12-06T13:15:01.616Z,9.40
2018-12-06T13:17:28.857Z,9.30
2018-12-06T13:19:56.088Z,9.40
2018-12-06T13:22:23.425Z,9.40
2018-12-06T13:24:50.793Z,9.40
2018-12-06T13:27:18.009Z,9.30
2018-12-06T13:29:45.369Z,9.40
2018-12-06T13:32:12.684Z,9.40
2018-12-06T13:34:39.929Z,9.30
2018-12-06T13:37:07.273Z,9.30
2018-12-06T13:39:34.665Z,9.30
2018-12-06T13:42:01.884Z,9.30
2018-12-06T13:44:29.148Z,9.30
2018-12-06T13:46:56.372Z,9.40
2018-12-06T13:49:23.584Z,9.50
2018-12-06T13:52:28.768Z,9.40
2018-12-06T13:54:55.965Z,9.50
2018-12-06T13:57:23.148Z,9.50
2018-12-06T13:59:50.449Z,9.50
2018-12-06T14:02:17.635Z,9.50
2018-12-06T14:04:44.827Z,9.60
2018-12-06T14:07:12.041Z,9.50
2018-12-06T14:09:39.237Z,9.60
2018-12-06T14:12:06.436Z,9.60
2018-12-06T14:14:33.776Z,9.50
2018-12-06T14:17:01.109Z,9.60
2018-12-06T14:19:28.296Z,9.50
2018-12-06T14:21:55.485Z,9.50
2018-12-06T14:24:22.676Z,9.50
2018-12-06T14:26:49.872Z,9.50
2018-12-06T14:29:17.051Z,9.50
2018-12-06T14:31:44.252Z,9.60
2018-12-06T14:34:11.442Z,9.50
2018-12-06T14:36:38.638Z,9.50
2018-12-06T14:39:08.169Z,9.50
2018-12-06T14:41:35.442Z,9.50
2018-12-06T14:44:02.973Z,9.50
2018-12-06T14:46:30.172Z,9.50
2018-12-06T14:48:57.372Z,9.50
2018-12-06T14:51:24.585Z,9.50
2018-12-06T14:53:51.769Z,9.50
2018-12-06T14:56:19.079Z,9.50
2018-12-06T14:58:46.280Z,9.50
2018-12-06T15:01:13.508Z,9.50
2018-12-06T15:03:40.812Z,9.50
2018-12-06T15:06:08.004Z,9.50
2018-12-06T15:08:35.199Z,9.50
2018-12-06T15:11:02.384Z,9.50
2018-12-06T15:13:29.598Z,9.50
2018-12-06T15:15:56.784Z,9.50
2018-12-06T15:18:24.001Z,9.50
2018-12-06T15:20:51.184Z,9.50
2018-12-06T15:23:18.384Z,9.50
2018-12-06T15:25:45.572Z,9.40
2018-12-06T15:28:12.786Z,9.40
2018-12-06T15:30:39.985Z,9.50
2018-12-06T15:33:07.193Z,9.50
2018-12-06T15:35:34.388Z,9.50
2018-12-06T15:38:01.589Z,9.40
2018-12-06T15:40:28.774Z,9.40
2018-12-06T15:42:55.957Z,9.40
2018-12-06T15:45:23.152Z,9.40
2018-12-06T15:47:50.368Z,9.50
2018-12-06T15:50:17.599Z,9.50
2018-12-06T15:52:44.853Z,9.60
2018-12-06T15:55:12.201Z,9.60
2018-12-06T15:57:39.496Z,9.70
2018-12-06T16:00:10.296Z,9.70
2018-12-06T16:02:37.509Z,9.80
2018-12-06T16:05:05.616Z,9.80
2018-12-06T16:07:32.913Z,9.80
2018-12-06T16:10:00.224Z,9.80
2018-12-06T16:12:27.440Z,9.80
2018-12-06T16:14:54.672Z,9.80
2018-12-06T16:17:21.901Z,9.80
2018-12-06T16:19:49.137Z,9.90
2018-12-06T16:22:16.456Z,9.90
2018-12-06T16:24:43.696Z,9.90
2018-12-06T16:27:11.136Z,9.90
2018-12-06T16:29:38.364Z,9.80
2018-12-06T16:32:05.660Z,9.90
2018-12-06T16:34:32.900Z,9.90
2018-12-06T16:37:00.278Z,9.80
2018-12-06T16:39:27.504Z,9.90
2018-12-06T16:41:54.844Z,9.80
2018-12-06T16:44:22.150Z,9.90
2018-12-06T16:46:57.293Z,9.80
2018-12-06T16:49:25.248Z,9.80
2018-12-06T16:51:52.584Z,9.80
2018-12-06T16:54:19.829Z,9.80
2018-12-06T16:56:47.169Z,9.80
2018-12-06T16:59:14.393Z,9.80
2018-12-06T17:01:41.740Z,9.80
2018-12-06T17:04:09.025Z,9.70
2018-12-06T17:06:36.702Z,9.80
2018-12-06T17:09:06.293Z,9.70
2018-12-06T17:11:33.589Z,9.70
2018-12-06T17:14:00.917Z,9.70
2018-12-06T17:16:28.318Z,9.80
2018-12-06T17:18:55.532Z,9.80
2018-12-06T17:21:22.772Z,9.90
2018-12-06T17:23:50.118Z,9.90
2018-12-06T17:26:17.477Z,9.90
2018-12-06T17:28:45.781Z,9.90
2018-12-06T17:31:13.009Z,9.90
2018-12-06T17:33:40.336Z,10.00
2018-12-06T17:36:07.574Z,10.00
2018-12-06T17:38:34.817Z,10.00
2018-12-06T17:41:02.049Z,10.00
2018-12-06T17:43:29.347Z,10.00
2018-12-06T17:45:57.574Z,10.00
2018-12-06T17:48:24.913Z,10.00
2018-12-06T17:50:52.289Z,10.00
2018-12-06T17:53:19.520Z,10.00
2018-12-06T17:55:51.440Z,10.10
2018-12-06T17:58:18.794Z,10.10
2018-12-06T18:00:46.335Z,10.10
2018-12-06T18:03:13.641Z,10.10
2018-12-06T18:05:40.913Z,10.10
2018-12-06T18:08:08.869Z,10.10
2018-12-06T18:10:36.433Z,10.10
2018-12-06T18:13:04.020Z,10.10
2018-12-06T18:15:32.392Z,10.10
2018-12-06T18:17:59.713Z,10.10
2018-12-06T18:20:27.028Z,10.10
2018-12-06T18:22:54.392Z,10.10
2018-12-06T18:25:23.884Z,10.10
2018-12-06T18:27:51.144Z,10.10
2018-12-06T18:30:19.433Z,10.10
2018-12-06T18:32:46.713Z,10.10
2018-12-06T18:35:14.208Z,10.10
2018-12-06T18:37:41.441Z,10.10
2018-12-06T18:40:08.979Z,10.10
2018-12-06T18:42:36.265Z,10.10
2018-12-06T18:45:04.169Z,10.10
2018-12-06T18:47:31.388Z,10.00
2018-12-06T18:49:58.710Z,10.10
2018-12-06T18:52:25.968Z,10.10
2018-12-06T18:54:53.359Z,10.10
2018-12-06T18:57:20.638Z,10.10
2018-12-06T18:59:47.941Z,10.10
2018-12-06T19:02:15.311Z,10.10
2018-12-06T19:04:42.575Z,10.10
2018-12-06T19:07:09.824Z,10.10
2018-12-06T19:09:37.215Z,10.10
2018-12-06T19:12:04.600Z,10.10
2018-12-06T19:14:32.225Z,10.10
2018-12-06T19:16:59.498Z,10.10
2018-12-06T19:19:26.899Z,10.10
2018-12-06T19:21:54.120Z,10.00
2018-12-06T19:24:21.581Z,10.00
2018-12-06T19:26:48.860Z,10.00
2018-12-06T19:29:16.096Z,10.00
2018-12-06T19:31:43.448Z,10.00
2018-12-06T19:34:10.749Z,10.00
2018-12-06T19:36:38.118Z,10.00
2018-12-06T19:39:07.933Z,10.00
2018-12-06T19:41:35.189Z,9.90
2018-12-06T19:44:02.455Z,10.00
2018-12-06T19:46:29.741Z,10.00
2018-12-06T19:48:57.060Z,9.90
2018-12-06T19:51:24.365Z,9.90
2018-12-06T19:53:53.292Z,9.90
2018-12-06T19:56:21.132Z,10.00
2018-12-06T19:58:48.620Z,10.00
2018-12-06T20:01:16.211Z,10.00
2018-12-06T20:03:43.432Z,9.90
2018-12-06T20:06:10.827Z,9.90
2018-12-06T20:08:38.068Z,10.00
2018-12-06T20:11:05.339Z,10.00
2018-12-06T20:13:32.753Z,10.00
2018-12-06T20:16:00.086Z,10.00
2018-12-06T20:18:27.509Z,10.00
2018-12-06T20:20:54.748Z,10.00
2018-12-06T20:23:21.981Z,10.00
2018-12-06T20:25:49.590Z,10.00
2018-12-06T20:28:16.861Z,10.00
2018-12-06T20:30:44.365Z,10.00
2018-12-06T20:33:11.613Z,10.10
2018-12-06T20:35:38.854Z,10.10
2018-12-06T20:38:06.188Z,10.10
2018-12-06T20:40:33.539Z,10.20
2018-12-06T20:43:00.848Z,10.20
2018-12-06T20:45:28.121Z,10.20
2018-12-06T20:47:55.356Z,10.20
2018-12-06T20:50:22.587Z,10.20
2018-12-06T20:52:49.807Z,10.20
2018-12-06T20:55:17.313Z,10.20
2018-12-06T20:57:44.617Z,10.20
2018-12-06T21:00:12.220Z,10.20
2018-12-06T21:02:39.528Z,10.20
2018-12-06T21:05:06.985Z,10.20
2018-12-06T21:07:34.208Z,10.20
2018-12-06T21:10:01.632Z,10.30
2018-12-06T21:12:28.893Z,10.30
2018-12-06T21:14:56.099Z,10.30
2018-12-06T21:17:23.384Z,10.30
2018-12-06T21:19:50.596Z,10.30
2018-12-06T21:22:17.845Z,10.30
2018-12-06T21:24:45.168Z,10.30
2018-12-06T21:27:12.396Z,10.30
2018-12-06T21:29:39.613Z,10.40
2018-12-06T21:32:06.837Z,10.40
2018-12-06T21:34:34.541Z,10.40
2018-12-06T21:37:01.764Z,10.40
2018-12-06T21:39:28.967Z,10.40
2018-12-06T21:41:56.217Z,10.40
2018-12-06T21:44:23.473Z,10.40
2018-12-06T21:46:50.755Z,10.40
2018-12-06T21:49:17.969Z,10.40
2018-12-06T21:51:45.238Z,10.40
2018-12-06T21:54:12.554Z,10.40
2018-12-06T21:56:39.756Z,10.50
2018-12-06T21:59:06.961Z,10.40
2018-12-06T22:01:34.165Z,10.50
2018-12-06T22:04:01.364Z,10.40
2018-12-06T22:06:28.569Z,10.40
2018-12-06T22:08:55.828Z,10.50
2018-12-06T22:11:23.296Z,10.50
2018-12-06T22:13:50.617Z,10.50
2018-12-06T22:16:17.813Z,10.40
2018-12-06T22:18:45.124Z,10.40
2018-12-06T22:21:15.285Z,10.50
2018-12-06T22:23:42.598Z,10.50
2018-12-06T22:26:09.797Z,10.50
2018-12-06T22:28:37.007Z,10.50
2018-12-06T22:31:04.216Z,10.50
2018-12-06T22:33:31.424Z,10.50
2018-12-06T22:35:58.626Z,10.50
2018-12-06T22:38:26.012Z,10.50
2018-12-06T22:40:53.212Z,10.50
2018-12-06T22:43:20.403Z,10.60
2018-12-06T22:45:59.013Z,10.60
2018-12-06T22:48:26.329Z,10.60
2018-12-06T22:50:53.771Z,10.60
2018-12-06T22:53:21.183Z,10.50
2018-12-06T22:55:48.505Z,10.60
2018-12-06T22:58:15.796Z,10.60
2018-12-06T23:00:50.072Z,10.50
2018-12-06T23:03:17.508Z,10.60
2018-12-06T23:05:44.945Z,10.60
2018-12-06T23:08:12.253Z,10.60
2018-12-06T23:10:39.453Z,10.60
2018-12-06T23:13:06.648Z,10.60
2018-12-06T23:15:33.969Z,10.60
2018-12-06T23:18:01.181Z,10.60
2018-12-06T23:20:28.380Z,10.60
2018-12-06T23:22:55.684Z,10.60
2018-12-06T23:25:22.887Z,10.60
2018-12-06T23:27:50.068Z,10.60
2018-12-06T23:30:17.385Z,10.60
2018-12-06T23:32:44.572Z,10.60
2018-12-06T23:35:12.000Z,10.60
2018-12-06T23:37:39.193Z,10.70
2018-12-06T23:40:06.531Z,10.70
2018-12-06T23:42:33.772Z,10.70
2018-12-06T23:45:00.973Z,10.70
2018-12-06T23:47:28.257Z,10.70
2018-12-06T23:49:55.485Z,10.70
2018-12-06T23:52:22.826Z,10.70
2018-12-06T23:54:50.222Z,10.70
2018-12-06T23:57:17.443Z,10.80
2018-12-06T23:59:44.649Z,10.70
